createdAt,value
2018-02-03T00:02:25.689Z,13.67
2018-02-03T00:04:54.104Z,12.00
2018-02-03T00:07:22.345Z,12.57
2018-02-03T00:09:50.694Z,11.57
2018-02-03T00:12:18.947Z,12.20
2018-02-03T00:14:47.991Z,14.23
2018-02-03T00:17:16.300Z,14.50
2018-02-03T00:19:44.630Z,13.60
2018-02-03T00:22:14.360Z,10.77
2018-02-03T00:24:42.666Z,15.17
2018-02-03T00:27:11.066Z,14.33
2018-02-03T00:29:39.323Z,13.53
2018-02-03T00:32:07.600Z,11.07
2018-02-03T00:34:35.859Z,11.37
2018-02-03T00:37:04.236Z,12.90
2018-02-03T00:39:32.489Z,14.70
2018-02-03T00:42:01.351Z,11.10
2018-02-03T00:44:29.606Z,15.60
2018-02-03T00:46:57.884Z,13.43
2018-02-03T00:49:26.907Z,15.50
2018-02-03T00:51:55.219Z,11.20
2018-02-03T00:54:23.576Z,12.23
2018-02-03T00:56:51.886Z,10.60
2018-02-03T00:59:20.170Z,12.60
2018-02-03T01:01:48.655Z,11.00
2018-02-03T01:04:16.910Z,11.90
2018-02-03T01:06:45.200Z,10.33
2018-02-03T01:09:13.446Z,13.53
2018-02-03T01:11:41.866Z,15.97
2018-02-03T01:14:10.107Z,9.37
2018-02-03T01:16:38.381Z,10.07
2018-02-03T01:19:06.646Z,10.80
2018-02-03T01:21:35.611Z,13.60
2018-02-03T01:24:04.788Z,12.73
2018-02-03T01:26:33.058Z,10.30
2018-02-03T01:29:01.324Z,9.50
2018-02-03T01:31:29.604Z,11.10
2018-02-03T01:33:57.884Z,10.13
2018-02-03T01:36:26.148Z,11.37
2018-02-03T01:38:54.421Z,12.13
2018-02-03T01:41:22.712Z,14.70
2018-02-03T01:43:50.992Z,11.97
2018-02-03T01:46:19.251Z,15.57
2018-02-03T01:48:47.560Z,14.50
2018-02-03T01:51:15.815Z,15.17
2018-02-03T01:53:44.111Z,14.77
2018-02-03T01:56:12.367Z,15.20
2018-02-03T01:58:40.668Z,15.17
2018-02-03T02:01:08.960Z,14.50
2018-02-03T02:03:37.242Z,16.97
2018-02-03T02:06:05.635Z,18.00
2018-02-03T02:08:34.695Z,17.80
2018-02-03T02:11:03.012Z,20.27
2018-02-03T02:13:32.072Z,30.27
2018-02-03T02:16:00.331Z,20.67
2018-02-03T02:18:28.623Z,17.23
2018-02-03T02:20:57.003Z,19.40
2018-02-03T02:23:25.284Z,20.13
2018-02-03T02:25:53.557Z,15.60
2018-02-03T02:28:21.866Z,21.33
2018-02-03T02:30:50.900Z,18.77
2018-02-03T02:33:19.159Z,20.80
2018-02-03T02:35:47.459Z,19.97
2018-02-03T02:38:15.711Z,18.00
2018-02-03T02:40:44.044Z,18.40
2018-02-03T02:43:12.316Z,25.57
2018-02-03T02:45:40.603Z,20.80
2018-02-03T02:48:08.877Z,27.27
2018-02-03T02:50:37.170Z,25.73
2018-02-03T02:53:06.200Z,26.10
2018-02-03T02:55:34.524Z,23.67
2018-02-03T02:58:02.789Z,22.30
2018-02-03T03:00:31.176Z,24.50
2018-02-03T03:02:59.553Z,18.63
2018-02-03T03:05:27.842Z,19.10
2018-02-03T03:07:56.111Z,22.63
2018-02-03T03:10:24.412Z,19.30
2018-02-03T03:12:53.484Z,22.63
2018-02-03T03:15:21.759Z,20.00
2018-02-03T03:17:50.047Z,18.80
2018-02-03T03:20:18.417Z,19.60
2018-02-03T03:22:46.700Z,17.23
2018-02-03T03:25:14.983Z,22.70
2018-02-03T03:27:43.306Z,20.13
2018-02-03T03:30:11.727Z,18.50
2018-02-03T03:32:40.176Z,19.10
2018-02-03T03:35:08.460Z,18.40
2018-02-03T03:37:36.867Z,18.73
2018-02-03T03:40:05.136Z,18.77
2018-02-03T03:42:33.432Z,18.57
2018-02-03T03:45:01.709Z,22.00
2018-02-03T03:47:30.894Z,20.77
2018-02-03T03:49:59.147Z,17.90
2018-02-03T03:52:27.437Z,19.03
2018-02-03T03:54:55.724Z,20.90
2018-02-03T03:57:24.015Z,18.43
2018-02-03T03:59:52.323Z,22.13
2018-02-03T04:02:21.351Z,17.03
2018-02-03T04:04:50.234Z,19.60
2018-02-03T04:07:18.545Z,20.27
2018-02-03T04:09:46.925Z,21.43
2018-02-03T04:12:15.175Z,19.10
2018-02-03T04:14:43.463Z,24.23
2018-02-03T04:17:11.719Z,17.10
2018-02-03T04:19:40.020Z,23.10
2018-02-03T04:22:08.288Z,20.57
2018-02-03T04:24:36.585Z,23.13
2018-02-03T04:27:04.866Z,22.30
2018-02-03T04:29:33.667Z,18.90
2018-02-03T04:32:01.937Z,15.97
2018-02-03T04:34:30.984Z,18.23
2018-02-03T04:36:59.251Z,16.37
2018-02-03T04:39:28.311Z,22.50
2018-02-03T04:41:56.588Z,15.47
2018-02-03T04:44:25.415Z,15.27
2018-02-03T04:46:53.688Z,19.20
2018-02-03T04:49:21.968Z,14.80
2018-02-03T04:51:50.305Z,18.23
2018-02-03T04:54:18.583Z,17.77
2018-02-03T04:56:46.956Z,17.47
2018-02-03T04:59:15.381Z,21.50
2018-02-03T05:01:43.607Z,16.00
2018-02-03T05:04:11.892Z,16.10
2018-02-03T05:06:40.175Z,15.30
2018-02-03T05:09:09.368Z,14.80
2018-02-03T05:11:37.634Z,16.00
2018-02-03T05:14:06.235Z,17.67
2018-02-03T05:16:34.535Z,15.97
2018-02-03T05:19:03.701Z,16.40
2018-02-03T05:21:31.974Z,16.80
2018-02-03T05:24:00.249Z,16.37
2018-02-03T05:26:28.519Z,16.10
2018-02-03T05:28:56.784Z,16.90
2018-02-03T05:31:25.071Z,19.80
2018-02-03T05:33:53.333Z,17.93
2018-02-03T05:36:21.643Z,16.53
2018-02-03T05:38:49.913Z,21.57
2018-02-03T05:41:18.191Z,19.43
2018-02-03T05:43:46.451Z,18.33
2018-02-03T05:46:14.849Z,18.23
2018-02-03T05:48:43.102Z,19.67
2018-02-03T05:51:11.415Z,16.30
2018-02-03T05:53:39.793Z,17.40
2018-02-03T05:56:08.044Z,12.10
2018-02-03T05:58:36.330Z,13.30
2018-02-03T06:01:04.583Z,11.70
2018-02-03T06:03:32.873Z,13.23
2018-02-03T06:06:01.273Z,13.50
2018-02-03T06:08:29.560Z,14.93
2018-02-03T06:10:59.333Z,14.30
2018-02-03T06:13:27.628Z,10.30
2018-02-03T06:15:55.938Z,11.77
2018-02-03T06:18:24.240Z,10.33
2018-02-03T06:20:53.275Z,13.73
2018-02-03T06:23:21.560Z,13.57
2018-02-03T06:25:49.839Z,16.90
2018-02-03T06:28:18.133Z,14.93
2018-02-03T06:30:46.404Z,16.70
2018-02-03T06:33:14.679Z,11.50
2018-02-03T06:35:42.968Z,13.30
2018-02-03T06:38:11.257Z,15.47
2018-02-03T06:40:39.507Z,17.13
2018-02-03T06:43:07.801Z,13.60
2018-02-03T06:45:36.059Z,12.30
2018-02-03T06:48:04.739Z,11.63
2018-02-03T06:50:33.054Z,11.80
2018-02-03T06:53:01.426Z,9.77
2018-02-03T06:55:29.680Z,10.03
2018-02-03T06:57:57.968Z,8.30
2018-02-03T07:00:26.251Z,16.97
2018-02-03T07:02:54.507Z,11.97
2018-02-03T07:05:22.793Z,14.63
2018-02-03T07:07:51.050Z,14.63
2018-02-03T07:10:19.327Z,15.10
2018-02-03T07:12:47.636Z,16.63
2018-02-03T07:15:15.912Z,14.20
2018-02-03T07:17:44.355Z,17.23
2018-02-03T07:20:12.848Z,15.07
2018-02-03T07:22:41.111Z,13.60
2018-02-03T07:25:09.397Z,11.07
2018-02-03T07:27:37.716Z,10.03
2018-02-03T07:30:06.037Z,11.47
2018-02-03T07:32:35.111Z,9.97
2018-02-03T07:35:04.160Z,8.57
2018-02-03T07:37:32.412Z,13.03
2018-02-03T07:40:00.713Z,13.60
2018-02-03T07:42:29.000Z,13.47
2018-02-03T07:44:57.265Z,12.50
2018-02-03T07:47:25.587Z,11.17
2018-02-03T07:49:55.394Z,12.67
2018-02-03T07:52:23.678Z,14.63
2018-02-03T07:54:52.046Z,12.77
2018-02-03T07:57:20.343Z,13.07
2018-02-03T07:59:49.378Z,12.03
2018-02-03T08:02:17.693Z,12.23
2018-02-03T08:04:45.973Z,10.20
2018-02-03T08:07:14.351Z,12.00
2018-02-03T08:09:42.640Z,11.87
2018-02-03T08:12:10.937Z,13.90
2018-02-03T08:14:39.974Z,11.60
2018-02-03T08:17:08.248Z,9.07
2018-02-03T08:19:36.516Z,10.57
2018-02-03T08:22:04.837Z,10.10
2018-02-03T08:24:33.094Z,8.50
2018-02-03T08:27:01.372Z,10.07
2018-02-03T08:29:29.652Z,8.63
2018-02-03T08:31:57.964Z,13.20
2018-02-03T08:34:26.216Z,12.17
2018-02-03T08:36:54.491Z,14.80
2018-02-03T08:39:22.787Z,12.90
2018-02-03T08:41:51.056Z,10.00
2018-02-03T08:44:19.344Z,11.57
2018-02-03T08:46:48.372Z,9.63
2018-02-03T08:49:16.803Z,8.13
2018-02-03T08:51:45.040Z,7.97
2018-02-03T08:54:13.354Z,9.80
2018-02-03T08:56:41.621Z,8.27
2018-02-03T08:59:09.896Z,7.27
2018-02-03T09:01:38.159Z,5.70
2018-02-03T09:04:06.439Z,7.03
2018-02-03T09:06:34.687Z,5.80
2018-02-03T09:09:02.951Z,6.47
2018-02-03T09:11:31.976Z,6.27
2018-02-03T09:14:00.266Z,4.27
2018-02-03T09:16:28.513Z,4.57
2018-02-03T09:18:56.778Z,6.40
2018-02-03T09:21:25.831Z,4.73
2018-02-03T09:23:54.119Z,11.33
2018-02-03T09:26:22.495Z,3.97
2018-02-03T09:28:50.876Z,4.60
2018-02-03T09:31:19.200Z,3.93
2018-02-03T09:33:47.563Z,4.90
2018-02-03T09:36:15.820Z,3.53
2018-02-03T09:38:44.132Z,5.30
2018-02-03T09:41:12.413Z,3.83
2018-02-03T09:43:40.689Z,4.40
2018-02-03T09:46:08.960Z,4.70
2018-02-03T09:48:37.228Z,3.53
2018-02-03T09:51:06.267Z,4.20
2018-02-03T09:53:34.525Z,4.10
2018-02-03T09:56:02.817Z,6.70
2018-02-03T09:58:31.078Z,6.63
2018-02-03T10:00:59.407Z,3.43
2018-02-03T10:03:27.775Z,5.70
2018-02-03T10:05:56.028Z,4.67
2018-02-03T10:08:24.328Z,5.80
2018-02-03T10:10:52.567Z,5.00
2018-02-03T10:13:21.603Z,6.17
2018-02-03T10:15:49.855Z,4.57
2018-02-03T10:18:18.152Z,8.83
2018-02-03T10:20:46.415Z,6.00
2018-02-03T10:23:14.688Z,5.57
2018-02-03T10:25:42.952Z,5.70
2018-02-03T10:28:11.252Z,4.97
2018-02-03T10:30:39.568Z,6.90
2018-02-03T10:33:07.920Z,8.63
2018-02-03T10:35:36.204Z,6.33
2018-02-03T10:38:04.573Z,5.60
2018-02-03T10:40:32.837Z,11.03
2018-02-03T10:43:01.108Z,5.57
2018-02-03T10:45:29.360Z,5.93
2018-02-03T10:47:57.633Z,9.57
2018-02-03T10:50:25.895Z,6.50
2018-02-03T10:52:55.062Z,12.67
2018-02-03T10:55:23.304Z,6.60
2018-02-03T10:57:51.613Z,8.27
2018-02-03T11:00:19.886Z,8.20
2018-02-03T11:02:48.140Z,8.17
2018-02-03T11:05:16.442Z,7.70
2018-02-03T11:07:44.688Z,6.53
2018-02-03T11:10:12.972Z,7.97
2018-02-03T11:12:41.235Z,6.00
2018-02-03T11:15:09.508Z,7.50
2018-02-03T11:17:37.755Z,6.37
2018-02-03T11:20:06.038Z,8.63
2018-02-03T11:22:34.299Z,7.80
2018-02-03T11:25:02.574Z,7.83
2018-02-03T11:27:30.894Z,7.43
2018-02-03T11:29:59.261Z,6.50
2018-02-03T11:32:27.517Z,6.03
2018-02-03T11:34:55.794Z,9.20
2018-02-03T11:37:24.052Z,11.43
2018-02-03T11:39:52.324Z,12.43
2018-02-03T11:42:20.660Z,6.83
2018-02-03T11:44:48.960Z,10.50
2018-02-03T11:47:18.004Z,9.80
2018-02-03T11:49:46.281Z,8.93
2018-02-03T11:52:14.692Z,8.67
2018-02-03T11:54:42.940Z,10.43
2018-02-03T11:57:11.218Z,9.60
2018-02-03T11:59:39.482Z,9.40
2018-02-03T12:02:07.788Z,9.17
2018-02-03T12:04:36.039Z,8.97
2018-02-03T12:07:04.311Z,8.47
2018-02-03T12:09:32.571Z,8.10
2018-02-03T12:12:00.848Z,9.87
2018-02-03T12:14:29.187Z,7.57
2018-02-03T12:16:58.270Z,11.53
2018-02-03T12:19:26.651Z,9.83
2018-02-03T12:21:54.916Z,10.53
2018-02-03T12:24:23.184Z,8.83
2018-02-03T12:26:51.468Z,10.30
2018-02-03T12:29:19.772Z,11.43
2018-02-03T12:31:48.019Z,8.73
2018-02-03T12:34:16.558Z,8.90
2018-02-03T12:36:45.619Z,8.97
2018-02-03T12:39:14.910Z,9.67
2018-02-03T12:41:43.192Z,11.10
2018-02-03T12:44:11.572Z,8.10
2018-02-03T12:46:39.831Z,8.10
2018-02-03T12:49:08.131Z,12.53
2018-02-03T12:51:36.380Z,8.20
2018-02-03T12:54:04.681Z,8.57
2018-02-03T12:56:32.932Z,7.90
2018-02-03T12:59:01.229Z,9.23
2018-02-03T13:01:29.479Z,11.43
2018-02-03T13:03:57.756Z,9.20
2018-02-03T13:06:26.023Z,11.00
2018-02-03T13:08:54.336Z,13.13
2018-02-03T13:11:22.724Z,10.43
2018-02-03T13:13:50.994Z,13.10
2018-02-03T13:16:19.252Z,12.23
2018-02-03T13:18:47.524Z,11.20
2018-02-03T13:21:15.780Z,10.50
2018-02-03T13:23:44.075Z,9.30
2018-02-03T13:26:12.323Z,9.00
2018-02-03T13:28:41.392Z,9.03
2018-02-03T13:31:09.672Z,12.00
2018-02-03T13:33:37.940Z,15.50
2018-02-03T13:36:06.343Z,9.60
2018-02-03T13:38:35.360Z,8.70
2018-02-03T13:41:03.636Z,11.93
2018-02-03T13:43:31.901Z,10.70
2018-02-03T13:46:00.945Z,8.90
2018-02-03T13:48:29.199Z,6.47
2018-02-03T13:50:57.508Z,6.90
2018-02-03T13:53:25.761Z,9.00
2018-02-03T13:55:54.166Z,8.07
2018-02-03T13:58:22.416Z,10.30
2018-02-03T14:00:50.731Z,8.30
2018-02-03T14:03:18.983Z,9.57
2018-02-03T14:05:47.291Z,9.80
2018-02-03T14:08:15.551Z,7.70
2018-02-03T14:10:43.895Z,9.20
2018-02-03T14:13:12.156Z,7.63
2018-02-03T14:15:40.410Z,11.87
2018-02-03T14:18:08.679Z,9.43
2018-02-03T14:20:36.941Z,10.53
2018-02-03T14:23:05.316Z,8.70
2018-02-03T14:25:33.560Z,7.70
2018-02-03T14:28:01.838Z,7.57
2018-02-03T14:30:30.096Z,6.57
2018-02-03T14:32:59.122Z,9.83
2018-02-03T14:35:27.377Z,9.60
2018-02-03T14:37:55.647Z,9.30
2018-02-03T14:40:23.980Z,11.60
2018-02-03T14:42:52.260Z,11.43
2018-02-03T14:45:20.570Z,6.83
2018-02-03T14:47:48.860Z,11.03
2018-02-03T14:50:17.116Z,12.07
2018-02-03T14:52:46.186Z,8.43
2018-02-03T14:55:14.453Z,7.63
2018-02-03T14:57:42.732Z,7.83
2018-02-03T15:00:11.213Z,9.40
2018-02-03T15:02:39.459Z,8.27
2018-02-03T15:05:07.736Z,9.37
2018-02-03T15:07:35.999Z,9.87
2018-02-03T15:10:05.200Z,10.40
2018-02-03T15:12:34.247Z,10.00
2018-02-03T15:15:02.523Z,10.13
2018-02-03T15:17:30.794Z,9.87
2018-02-03T15:19:59.169Z,8.80
2018-02-03T15:22:27.432Z,6.87
2018-02-03T15:24:55.733Z,14.30
2018-02-03T15:27:23.988Z,9.43
2018-02-03T15:29:52.240Z,8.90
2018-02-03T15:32:20.558Z,7.87
2018-02-03T15:34:48.802Z,10.03
2018-02-03T15:37:17.119Z,8.27
2018-02-03T15:39:45.394Z,13.33
2018-02-03T15:42:13.659Z,8.50
2018-02-03T15:44:41.921Z,8.40
2018-02-03T15:47:10.187Z,8.30
2018-02-03T15:49:38.454Z,10.00
2018-02-03T15:52:06.731Z,11.00
2018-02-03T15:54:34.999Z,10.10
2018-02-03T15:57:04.153Z,10.40
2018-02-03T15:59:32.432Z,5.37
2018-02-03T16:02:00.691Z,7.67
2018-02-03T16:04:28.956Z,8.30
2018-02-03T16:06:57.243Z,10.50
2018-02-03T16:09:25.523Z,8.33
2018-02-03T16:11:53.785Z,6.27
2018-02-03T16:14:22.091Z,9.70
2018-02-03T16:16:50.341Z,7.10
2018-02-03T16:19:18.617Z,9.10
2018-02-03T16:21:46.885Z,5.83
2018-02-03T16:24:15.194Z,8.90
2018-02-03T16:26:43.467Z,7.80
2018-02-03T16:29:11.755Z,10.43
2018-02-03T16:31:40.013Z,10.00
2018-02-03T16:34:08.295Z,12.60
2018-02-03T16:36:36.552Z,10.10
2018-02-03T16:39:04.861Z,9.00
2018-02-03T16:41:33.129Z,10.30
2018-02-03T16:44:01.517Z,8.10
2018-02-03T16:46:29.773Z,6.57
2018-02-03T16:48:58.083Z,8.90
2018-02-03T16:51:26.464Z,6.53
2018-02-03T16:53:54.711Z,7.43
2018-02-03T16:56:34.960Z,7.97
2018-02-03T16:59:03.240Z,7.00
2018-02-03T17:01:31.530Z,6.30
2018-02-03T17:03:59.797Z,7.40
2018-02-03T17:06:28.097Z,8.60
2018-02-03T17:08:56.356Z,13.10
2018-02-03T17:11:24.627Z,8.87
2018-02-03T17:13:52.889Z,7.30
2018-02-03T17:16:21.167Z,8.17
2018-02-03T17:18:49.425Z,8.17
2018-02-03T17:21:17.705Z,9.90
2018-02-03T17:23:45.960Z,7.50
2018-02-03T17:26:14.243Z,11.73
2018-02-03T17:28:43.272Z,10.50
2018-02-03T17:31:11.580Z,9.30
2018-02-03T17:33:39.839Z,5.67
2018-02-03T17:36:08.125Z,6.80
2018-02-03T17:38:52.228Z,7.30
2018-02-03T17:41:21.303Z,8.93
2018-02-03T17:43:49.552Z,7.30
2018-02-03T17:46:23.607Z,11.50
2018-02-03T17:48:52.659Z,8.13
2018-02-03T17:51:20.933Z,7.73
2018-02-03T17:53:49.217Z,9.10
2018-02-03T17:59:15.337Z,9.20
2018-02-03T18:01:43.603Z,6.33
2018-02-03T18:04:11.868Z,6.67
2018-02-03T18:09:36.875Z,8.73
2018-02-03T18:12:05.966Z,10.57
2018-02-03T18:14:35.013Z,6.53
2018-02-03T18:17:03.320Z,10.43
2018-02-03T18:19:31.692Z,8.77
2018-02-03T18:21:59.973Z,8.93
2018-02-03T18:24:28.232Z,6.53
2018-02-03T18:26:56.491Z,7.40
2018-02-03T18:29:24.750Z,6.00
2018-02-03T18:31:53.032Z,7.03
2018-02-03T18:34:21.352Z,8.33
2018-02-03T18:36:49.628Z,7.33
2018-02-03T18:39:17.909Z,7.03
2018-02-03T18:41:46.202Z,7.07
2018-02-03T18:44:14.448Z,8.17
2018-02-03T18:46:42.726Z,7.80
2018-02-03T18:49:10.967Z,8.50
2018-02-03T18:51:39.393Z,10.30
2018-02-03T18:54:07.688Z,8.13
2018-02-03T18:56:35.932Z,7.30
2018-02-03T18:59:04.203Z,7.97
2018-02-03T19:01:32.501Z,9.00
2018-02-03T19:04:00.755Z,9.63
2018-02-03T19:06:29.021Z,8.70
2018-02-03T19:08:57.299Z,9.33
2018-02-03T19:11:25.555Z,5.57
2018-02-03T19:13:54.714Z,8.90
2018-02-03T19:16:23.042Z,9.57
2018-02-03T19:18:51.308Z,9.67
2018-02-03T19:21:20.327Z,7.00
2018-02-03T19:23:48.616Z,9.03
2018-02-03T19:26:16.872Z,8.10
2018-02-03T19:28:45.173Z,9.10
2018-02-03T19:31:13.436Z,6.90
2018-02-03T19:33:41.730Z,10.00
2018-02-03T19:36:09.977Z,17.00
2018-02-03T19:38:38.284Z,10.43
2018-02-03T19:41:06.585Z,12.20
2018-02-03T19:43:34.959Z,6.20
2018-02-03T19:46:03.252Z,8.13
2018-02-03T19:48:31.508Z,8.70
2018-02-03T19:50:59.907Z,9.10
2018-02-03T19:53:28.179Z,6.23
2018-02-03T19:55:56.545Z,6.83
2018-02-03T19:58:24.799Z,7.97
2018-02-03T20:00:53.068Z,5.67
2018-02-03T20:03:21.382Z,6.00
2018-02-03T20:05:49.657Z,9.70
2018-02-03T20:08:17.915Z,6.00
2018-02-03T20:10:46.204Z,7.10
2018-02-03T20:13:14.462Z,5.90
2018-02-03T20:15:42.727Z,8.67
2018-02-03T20:18:11.017Z,6.73
2018-02-03T20:20:39.295Z,8.63
2018-02-03T20:23:07.570Z,6.17
2018-02-03T20:25:35.824Z,6.77
2018-02-03T20:28:04.099Z,4.57
2018-02-03T20:30:32.366Z,6.47
2018-02-03T20:33:01.410Z,6.00
2018-02-03T20:35:29.679Z,7.10
2018-02-03T20:37:57.958Z,5.97
2018-02-03T20:40:26.249Z,8.97
2018-02-03T20:42:54.541Z,6.57
2018-02-03T20:45:22.799Z,7.13
2018-02-03T20:47:51.064Z,5.90
2018-02-03T20:50:19.315Z,6.33
2018-02-03T20:52:47.648Z,5.77
2018-02-03T20:55:15.907Z,6.27
2018-02-03T20:57:44.271Z,5.03
2018-02-03T21:00:12.681Z,4.90
2018-02-03T21:02:40.925Z,3.93
2018-02-03T21:05:09.202Z,4.70
2018-02-03T21:07:37.467Z,8.43
2018-02-03T21:10:05.980Z,5.10
2018-02-03T21:12:34.247Z,9.37
2018-02-03T21:15:02.537Z,7.13
2018-02-03T21:17:30.780Z,7.37
2018-02-03T21:19:59.092Z,6.60
2018-02-03T21:22:27.336Z,8.77
2018-02-03T21:24:55.612Z,8.73
2018-02-03T21:27:24.625Z,7.87
2018-02-03T21:29:53.045Z,6.50
2018-02-03T21:32:22.972Z,6.47
2018-02-03T21:34:51.830Z,5.77
2018-02-03T21:37:21.468Z,5.63
2018-02-03T21:39:49.966Z,5.57
2018-02-03T21:42:18.236Z,7.47
2018-02-03T21:44:47.393Z,7.70
2018-02-03T21:47:15.652Z,7.33
2018-02-03T21:49:43.949Z,8.63
2018-02-03T21:52:12.195Z,5.50
2018-02-03T21:54:40.498Z,6.87
2018-02-03T21:57:08.773Z,7.10
2018-02-03T21:59:37.039Z,6.43
2018-02-03T22:02:05.351Z,7.20
2018-02-03T22:04:33.608Z,7.40
2018-02-03T22:07:02.091Z,7.27
2018-02-03T22:09:30.332Z,6.10
2018-02-03T22:11:58.616Z,7.33
2018-02-03T22:14:26.871Z,7.33
2018-02-03T22:16:55.147Z,4.57
2018-02-03T22:19:23.411Z,7.30
2018-02-03T22:21:52.464Z,5.70
2018-02-03T22:24:20.723Z,5.97
2018-02-03T22:26:48.997Z,8.53
2018-02-03T22:29:17.252Z,7.40
2018-02-03T22:31:45.533Z,6.43
2018-02-03T22:34:13.791Z,9.43
2018-02-03T22:36:42.815Z,7.60
2018-02-03T22:39:11.087Z,6.37
2018-02-03T22:41:39.348Z,8.03
2018-02-03T22:44:07.695Z,9.87
2018-02-03T22:46:35.968Z,7.67
2018-02-03T22:49:04.332Z,6.47
2018-02-03T22:51:32.609Z,8.80
2018-02-03T22:54:00.889Z,10.20
2018-02-03T22:56:29.144Z,5.90
2018-02-03T22:58:57.426Z,10.23
2018-02-03T23:01:25.679Z,5.33
2018-02-03T23:03:53.997Z,6.03
2018-02-03T23:06:22.250Z,6.10
2018-02-03T23:08:50.536Z,7.80
2018-02-03T23:11:18.827Z,13.30
2018-02-03T23:13:47.206Z,6.87
2018-02-03T23:16:15.448Z,8.03
2018-02-03T23:18:43.730Z,5.87
2018-02-03T23:21:11.999Z,6.90
2018-02-03T23:23:40.279Z,5.47
2018-02-03T23:26:08.538Z,6.17
2018-02-03T23:28:36.835Z,5.67
2018-02-03T23:31:05.120Z,7.10
2018-02-03T23:33:33.388Z,5.87
2018-02-03T23:36:01.664Z,6.93
2018-02-03T23:38:29.927Z,4.10
2018-02-03T23:40:58.205Z,6.13
2018-02-03T23:43:26.459Z,5.23
2018-02-03T23:45:55.520Z,4.33
2018-02-03T23:48:23.779Z,7.50
2018-02-03T23:50:52.052Z,4.57
2018-02-03T23:53:20.342Z,5.60
2018-02-03T23:55:48.644Z,6.30
2018-02-03T23:58:16.908Z,5.17
